sensor_id;sensor_type;location;lat;lon;timestamp;pressure;altitude;pressure_sealevel;temperature;humidity
61571;BME280;47463;49.884;10.010;2023-08-12T00:00:01;102100;;;17.1;79
61571;BME280;47463;49.884;10.010;2023-08-12T00:05:01;102100;;;17.2;79
61571;BME280;47463;49.884;10.010;2023-08-12T00:10:01;102090;;;17.1;79
61571;BME280;47463;49.884;10.010;2023-08-12T00:15:01;102090;;;17;79
61571;BME280;47463;49.884;10.010;2023-08-12T00:20:01;102090;;;16.9;79
61571;BME280;47463;49.884;10.010;2023-08-12T00:25:01;102090;;;16.9;80
61571;BME280;47463;49.884;10.010;2023-08-12T00:30:01;102090;;;16.9;80
61571;BME280;47463;49.884;10.010;2023-08-12T00:35:01;102080;;;16.8;80
61571;BME280;47463;49.884;10.010;2023-08-12T00:40:01;102070;;;16.8;80
61571;BME280;47463;49.884;10.010;2023-08-12T00:45:01;102060;;;16.8;80
61571;BME280;47463;49.884;10.010;2023-08-12T00:50:01;102060;;;16.9;80
61571;BME280;47463;49.884;10.010;2023-08-12T00:55:01;102060;;;17;79
61571;BME280;47463;49.884;10.010;2023-08-12T01:00:01;102060;;;16.9;79
61571;BME280;47463;49.884;10.010;2023-08-12T01:05:01;102050;;;16.9;80
61571;BME280;47463;49.884;10.010;2023-08-12T01:10:01;102040;;;16.9;80
61571;BME280;47463;49.884;10.010;2023-08-12T01:15:02;102040;;;16.7;80
61571;BME280;47463;49.884;10.010;2023-08-12T01:20:01;102030;;;16.6;81
61571;BME280;47463;49.884;10.010;2023-08-12T01:25:01;102030;;;16.7;81
61571;BME280;47463;49.884;10.010;2023-08-12T01:30:01;102030;;;16.7;81
61571;BME280;47463;49.884;10.010;2023-08-12T01:35:02;102030;;;16.6;81
61571;BME280;47463;49.884;10.010;2023-08-12T01:40:02;102030;;;16.7;81
61571;BME280;47463;49.884;10.010;2023-08-12T01:45:01;102020;;;16.8;80
61571;BME280;47463;49.884;10.010;2023-08-12T01:50:01;102020;;;16.6;81
61571;BME280;47463;49.884;10.010;2023-08-12T01:55:01;102020;;;16.6;81
61571;BME280;47463;49.884;10.010;2023-08-12T02:00:01;102010;;;16.7;81
61571;BME280;47463;49.884;10.010;2023-08-12T02:05:01;102000;;;16.8;81
61571;BME280;47463;49.884;10.010;2023-08-12T02:10:01;101990;;;16.7;81
61571;BME280;47463;49.884;10.010;2023-08-12T02:15:01;101990;;;16.6;82
61571;BME280;47463;49.884;10.010;2023-08-12T02:20:01;101990;;;16.5;82
61571;BME280;47463;49.884;10.010;2023-08-12T02:25:01;102000;;;16.8;81
61571;BME280;47463;49.884;10.010;2023-08-12T02:30:01;102000;;;16.8;81
61571;BME280;47463;49.884;10.010;2023-08-12T02:35:01;101980;;;16.7;81
61571;BME280;47463;49.884;10.010;2023-08-12T02:40:01;101990;;;16.7;82
61571;BME280;47463;49.884;10.010;2023-08-12T02:45:01;101990;;;16.7;82
61571;BME280;47463;49.884;10.010;2023-08-12T02:50:01;101980;;;16.7;82
61571;BME280;47463;49.884;10.010;2023-08-12T02:55:01;101980;;;16.7;82
61571;BME280;47463;49.884;10.010;2023-08-12T03:00:01;101980;;;16.7;82
61571;BME280;47463;49.884;10.010;2023-08-12T03:05:01;101980;;;16.8;82
61571;BME280;47463;49.884;10.010;2023-08-12T03:10:01;101980;;;16.7;82
61571;BME280;47463;49.884;10.010;2023-08-12T03:15:01;101990;;;16.8;82
61571;BME280;47463;49.884;10.010;2023-08-12T03:20:01;101980;;;16.8;82
61571;BME280;47463;49.884;10.010;2023-08-12T03:25:01;101980;;;16.8;82
61571;BME280;47463;49.884;10.010;2023-08-12T03:30:01;101980;;;16.7;82
61571;BME280;47463;49.884;10.010;2023-08-12T03:35:01;101970;;;16.7;83
61571;BME280;47463;49.884;10.010;2023-08-12T03:40:01;101980;;;16.6;83
61571;BME280;47463;49.884;10.010;2023-08-12T03:45:01;101990;;;16.5;83
61571;BME280;47463;49.884;10.010;2023-08-12T03:50:01;102000;;;16.5;83
61571;BME280;47463;49.884;10.010;2023-08-12T03:55:01;102010;;;16.7;83
61571;BME280;47463;49.884;10.010;2023-08-12T04:00:01;101980;;;17;82
61571;BME280;47463;49.884;10.010;2023-08-12T04:05:01;101970;;;17.2;81
61571;BME280;47463;49.884;10.010;2023-08-12T04:10:01;101970;;;17.1;82
61571;BME280;47463;49.884;10.010;2023-08-12T04:15:01;101970;;;17.1;82
61571;BME280;47463;49.884;10.010;2023-08-12T04:20:01;101960;;;17.1;82
61571;BME280;47463;49.884;10.010;2023-08-12T04:25:01;101950;;;17.1;83
61571;BME280;47463;49.884;10.010;2023-08-12T04:30:01;101960;;;16.9;84
61571;BME280;47463;49.884;10.010;2023-08-12T04:35:01;101960;;;16.9;84
61571;BME280;47463;49.884;10.010;2023-08-12T04:40:01;101970;;;16.9;85
61571;BME280;47463;49.884;10.010;2023-08-12T04:45:01;101960;;;17;85
61571;BME280;47463;49.884;10.010;2023-08-12T04:50:01;101960;;;17.1;85
61571;BME280;47463;49.884;10.010;2023-08-12T04:55:01;101950;;;17.1;85
61571;BME280;47463;49.884;10.010;2023-08-12T05:00:01;101960;;;17.2;85
61571;BME280;47463;49.884;10.010;2023-08-12T05:05:01;101960;;;17.2;85
61571;BME280;47463;49.884;10.010;2023-08-12T05:10:01;101960;;;17.2;85
61571;BME280;47463;49.884;10.010;2023-08-12T05:15:01;101960;;;17.2;85
61571;BME280;47463;49.884;10.010;2023-08-12T05:20:01;101960;;;17.3;85
61571;BME280;47463;49.884;10.010;2023-08-12T05:25:01;101970;;;17.4;85
61571;BME280;47463;49.884;10.010;2023-08-12T05:30:01;101970;;;17.5;85
61571;BME280;47463;49.884;10.010;2023-08-12T05:35:01;101970;;;17.5;85
61571;BME280;47463;49.884;10.010;2023-08-12T05:40:01;101970;;;17.7;84
61571;BME280;47463;49.884;10.010;2023-08-12T05:45:01;101970;;;17.8;84
61571;BME280;47463;49.884;10.010;2023-08-12T05:50:01;101980;;;18;84
61571;BME280;47463;49.884;10.010;2023-08-12T05:55:01;101960;;;18;84
61571;BME280;47463;49.884;10.010;2023-08-12T06:00:01;101960;;;18.1;84
61571;BME280;47463;49.884;10.010;2023-08-12T06:05:01;101950;;;18.1;84
61571;BME280;47463;49.884;10.010;2023-08-12T06:10:01;101980;;;18.1;84
61571;BME280;47463;49.884;10.010;2023-08-12T06:15:01;101970;;;18.2;84
61571;BME280;47463;49.884;10.010;2023-08-12T06:20:01;101980;;;18.4;83
61571;BME280;47463;49.884;10.010;2023-08-12T06:25:01;101990;;;18.6;82
61571;BME280;47463;49.884;10.010;2023-08-12T06:30:01;101980;;;18.8;81
61571;BME280;47463;49.884;10.010;2023-08-12T06:35:01;101970;;;19;81
61571;BME280;47463;49.884;10.010;2023-08-12T06:40:01;101970;;;19.1;80
61571;BME280;47463;49.884;10.010;2023-08-12T06:45:01;101970;;;19.1;80
61571;BME280;47463;49.884;10.010;2023-08-12T06:50:01;101960;;;19.2;80
61571;BME280;47463;49.884;10.010;2023-08-12T06:55:01;101970;;;19.2;78
61571;BME280;47463;49.884;10.010;2023-08-12T07:00:01;101970;;;19.3;77
61571;BME280;47463;49.884;10.010;2023-08-12T07:05:01;101980;;;19.5;77
61571;BME280;47463;49.884;10.010;2023-08-12T07:10:01;101980;;;19.6;77
61571;BME280;47463;49.884;10.010;2023-08-12T07:15:01;101970;;;20.3;76
61571;BME280;47463;49.884;10.010;2023-08-12T07:20:01;101990;;;20.9;74
61571;BME280;47463;49.884;10.010;2023-08-12T07:25:01;101990;;;21.4;71
61571;BME280;47463;49.884;10.010;2023-08-12T07:30:01;101980;;;21.6;69
61571;BME280;47463;49.884;10.010;2023-08-12T07:35:01;101980;;;21.8;68
61571;BME280;47463;49.884;10.010;2023-08-12T07:40:01;101980;;;21.8;68
61571;BME280;47463;49.884;10.010;2023-08-12T07:45:01;101980;;;21.9;69
61571;BME280;47463;49.884;10.010;2023-08-12T07:50:01;101980;;;22.2;68
61571;BME280;47463;49.884;10.010;2023-08-12T07:55:01;101970;;;22.5;67
61571;BME280;47463;49.884;10.010;2023-08-12T08:00:01;101970;;;22.8;65
61571;BME280;47463;49.884;10.010;2023-08-12T08:05:01;101980;;;22.8;64
61571;BME280;47463;49.884;10.010;2023-08-12T08:10:01;101970;;;23.1;63
61571;BME280;47463;49.884;10.010;2023-08-12T08:15:01;101980;;;22.8;63
61571;BME280;47463;49.884;10.010;2023-08-12T08:20:01;101970;;;22.9;64
61571;BME280;47463;49.884;10.010;2023-08-12T08:25:01;101970;;;23;63
61571;BME280;47463;49.884;10.010;2023-08-12T08:30:01;101970;;;23.7;61
61571;BME280;47463;49.884;10.010;2023-08-12T08:35:01;101950;;;24.1;59
61571;BME280;47463;49.884;10.010;2023-08-12T08:40:01;101950;;;24.1;58
61571;BME280;47463;49.884;10.010;2023-08-12T08:45:01;101960;;;24;59
61571;BME280;47463;49.884;10.010;2023-08-12T08:50:01;101950;;;24.2;57
61571;BME280;47463;49.884;10.010;2023-08-12T08:55:01;101940;;;24.6;57
61571;BME280;47463;49.884;10.010;2023-08-12T09:00:01;101940;;;25;56
61571;BME280;47463;49.884;10.010;2023-08-12T09:05:01;101940;;;25.5;55
61571;BME280;47463;49.884;10.010;2023-08-12T09:10:01;101940;;;25.3;55
61571;BME280;47463;49.884;10.010;2023-08-12T09:15:01;101950;;;25;56
61571;BME280;47463;49.884;10.010;2023-08-12T09:20:01;101930;;;26.1;53
61571;BME280;47463;49.884;10.010;2023-08-12T09:25:01;101940;;;25.9;53
61571;BME280;47463;49.884;10.010;2023-08-12T09:30:02;101940;;;25.6;54
61571;BME280;47463;49.884;10.010;2023-08-12T09:35:01;101930;;;25.3;54
61571;BME280;47463;49.884;10.010;2023-08-12T09:40:01;101930;;;25.2;56
61571;BME280;47463;49.884;10.010;2023-08-12T09:45:01;101950;;;25.5;56
61571;BME280;47463;49.884;10.010;2023-08-12T09:50:01;101950;;;25.4;54
61571;BME280;47463;49.884;10.010;2023-08-12T09:55:01;101940;;;25.7;54
61571;BME280;47463;49.884;10.010;2023-08-12T10:00:01;101940;;;25.6;55
61571;BME280;47463;49.884;10.010;2023-08-12T10:05:01;101920;;;25.5;55
61571;BME280;47463;49.884;10.010;2023-08-12T10:10:01;101920;;;25.8;55
61571;BME280;47463;49.884;10.010;2023-08-12T10:15:01;101910;;;25.9;55
61571;BME280;47463;49.884;10.010;2023-08-12T10:20:01;101910;;;26.1;55
61571;BME280;47463;49.884;10.010;2023-08-12T10:25:01;101900;;;26.4;54
61571;BME280;47463;49.884;10.010;2023-08-12T10:30:02;101890;;;26.9;50
61571;BME280;47463;49.884;10.010;2023-08-12T10:35:01;101900;;;27.6;49
61571;BME280;47463;49.884;10.010;2023-08-12T10:40:02;101890;;;27.1;50
61571;BME280;47463;49.884;10.010;2023-08-12T10:45:03;101880;;;27.5;49
61571;BME280;47463;49.884;10.010;2023-08-12T10:50:01;101870;;;27.4;50
61571;BME280;47463;49.884;10.010;2023-08-12T10:55:17;101870;;;27.5;50
61571;BME280;47463;49.884;10.010;2023-08-12T11:00:01;101860;;;27.8;49
61571;BME280;47463;49.884;10.010;2023-08-12T11:05:01;101860;;;27.8;51
61571;BME280;47463;49.884;10.010;2023-08-12T11:10:04;101850;;;27.9;49
61571;BME280;47463;49.884;10.010;2023-08-12T11:15:01;101840;;;27.8;49
61571;BME280;47463;49.884;10.010;2023-08-12T11:20:01;101830;;;28;49
61571;BME280;47463;49.884;10.010;2023-08-12T11:25:01;101810;;;27.8;50
61571;BME280;47463;49.884;10.010;2023-08-12T11:30:01;101810;;;27.9;49
61571;BME280;47463;49.884;10.010;2023-08-12T11:35:01;101800;;;27.4;51
61571;BME280;47463;49.884;10.010;2023-08-12T11:40:01;101800;;;27.5;50
61571;BME280;47463;49.884;10.010;2023-08-12T11:45:01;101790;;;27.1;49
61571;BME280;47463;49.884;10.010;2023-08-12T11:50:01;101760;;;26.9;51
61571;BME280;47463;49.884;10.010;2023-08-12T11:55:01;101760;;;26.6;50
61571;BME280;47463;49.884;10.010;2023-08-12T12:00:01;101760;;;26.6;50
61571;BME280;47463;49.884;10.010;2023-08-12T12:05:04;101750;;;26.5;50
61571;BME280;47463;49.884;10.010;2023-08-12T12:10:01;101750;;;26.7;50
61571;BME280;47463;49.884;10.010;2023-08-12T12:15:01;101750;;;26.8;51
61571;BME280;47463;49.884;10.010;2023-08-12T12:20:01;101750;;;26.5;52
61571;BME280;47463;49.884;10.010;2023-08-12T12:25:06;101800;;;25.7;55
61571;BME280;47463;49.884;10.010;2023-08-12T12:30:01;101830;;;24;61
61571;BME280;47463;49.884;10.010;2023-08-12T12:35:01;101860;;;21.8;68
61571;BME280;47463;49.884;10.010;2023-08-12T12:40:01;101910;;;20.7;72
61571;BME280;47463;49.884;10.010;2023-08-12T12:45:01;101930;;;20;74
61571;BME280;47463;49.884;10.010;2023-08-12T12:50:01;101960;;;19.6;76
61571;BME280;47463;49.884;10.010;2023-08-12T12:55:01;101980;;;19;80
61571;BME280;47463;49.884;10.010;2023-08-12T13:00:01;102020;;;18.8;82
61571;BME280;47463;49.884;10.010;2023-08-12T13:05:01;102040;;;18.7;82
61571;BME280;47463;49.884;10.010;2023-08-12T13:10:01;101940;;;18.5;82
61571;BME280;47463;49.884;10.010;2023-08-12T13:15:01;101910;;;18.5;83
61571;BME280;47463;49.884;10.010;2023-08-12T13:20:01;101890;;;18.5;83
61571;BME280;47463;49.884;10.010;2023-08-12T13:25:01;101890;;;18.5;83
61571;BME280;47463;49.884;10.010;2023-08-12T13:30:01;101900;;;18.7;83
61571;BME280;47463;49.884;10.010;2023-08-12T13:35:01;101890;;;18.9;81
61571;BME280;47463;49.884;10.010;2023-08-12T13:40:01;101860;;;18.9;81
61571;BME280;47463;49.884;10.010;2023-08-12T13:45:01;101860;;;18.8;82
61571;BME280;47463;49.884;10.010;2023-08-12T13:50:01;101870;;;18.9;82
61571;BME280;47463;49.884;10.010;2023-08-12T13:55:01;101850;;;19;82
61571;BME280;47463;49.884;10.010;2023-08-12T14:00:01;101860;;;19.4;83
61571;BME280;47463;49.884;10.010;2023-08-12T14:05:01;101860;;;19.5;83
61571;BME280;47463;49.884;10.010;2023-08-12T14:10:01;101890;;;19.8;83
61571;BME280;47463;49.884;10.010;2023-08-12T14:15:01;101880;;;20;82
61571;BME280;47463;49.884;10.010;2023-08-12T14:20:01;101860;;;20.6;81
61571;BME280;47463;49.884;10.010;2023-08-12T14:25:01;101880;;;21;79
61571;BME280;47463;49.884;10.010;2023-08-12T14:30:01;101870;;;21.3;79
61571;BME280;47463;49.884;10.010;2023-08-12T14:35:01;101870;;;21.5;77
61571;BME280;47463;49.884;10.010;2023-08-12T14:40:01;101880;;;21.5;76
61571;BME280;47463;49.884;10.010;2023-08-12T14:45:01;101900;;;21.4;76
61571;BME280;47463;49.884;10.010;2023-08-12T14:50:01;101900;;;21.3;78
61571;BME280;47463;49.884;10.010;2023-08-12T14:55:01;101900;;;21.2;77
61571;BME280;47463;49.884;10.010;2023-08-12T15:00:01;101910;;;21.2;77
61571;BME280;47463;49.884;10.010;2023-08-12T15:05:01;101900;;;21.3;78
61571;BME280;47463;49.884;10.010;2023-08-12T15:10:01;101900;;;21.2;77
61571;BME280;47463;49.884;10.010;2023-08-12T15:15:01;101910;;;21.3;77
61571;BME280;47463;49.884;10.010;2023-08-12T15:20:01;101920;;;21.6;76
61571;BME280;47463;49.884;10.010;2023-08-12T15:25:01;101900;;;22;77
61571;BME280;47463;49.884;10.010;2023-08-12T15:30:01;101890;;;21.9;77
61571;BME280;47463;49.884;10.010;2023-08-12T15:35:01;101900;;;21.9;77
61571;BME280;47463;49.884;10.010;2023-08-12T15:40:01;101910;;;21.9;77
61571;BME280;47463;49.884;10.010;2023-08-12T15:45:01;101900;;;21.9;77
61571;BME280;47463;49.884;10.010;2023-08-12T15:50:01;101900;;;21.9;78
61571;BME280;47463;49.884;10.010;2023-08-12T15:55:01;101900;;;21.8;77
61571;BME280;47463;49.884;10.010;2023-08-12T16:00:01;101880;;;21.6;76
61571;BME280;47463;49.884;10.010;2023-08-12T16:05:01;101880;;;21.6;76
61571;BME280;47463;49.884;10.010;2023-08-12T16:10:01;101890;;;21.5;78
61571;BME280;47463;49.884;10.010;2023-08-12T16:15:01;101890;;;21.4;79
61571;BME280;47463;49.884;10.010;2023-08-12T16:20:01;101870;;;21.3;79
61571;BME280;47463;49.884;10.010;2023-08-12T16:25:01;101880;;;21.3;80
61571;BME280;47463;49.884;10.010;2023-08-12T16:30:01;101870;;;21.3;79
61571;BME280;47463;49.884;10.010;2023-08-12T16:35:01;101870;;;21.2;80
61571;BME280;47463;49.884;10.010;2023-08-12T16:40:01;101870;;;21.2;81
61571;BME280;47463;49.884;10.010;2023-08-12T16:45:01;101890;;;21.1;81
61571;BME280;47463;49.884;10.010;2023-08-12T16:50:01;101890;;;21.2;82
61571;BME280;47463;49.884;10.010;2023-08-12T16:55:01;101900;;;21.1;81
61571;BME280;47463;49.884;10.010;2023-08-12T17:00:01;101900;;;21.1;81
61571;BME280;47463;49.884;10.010;2023-08-12T17:05:01;101900;;;21.1;81
61571;BME280;47463;49.884;10.010;2023-08-12T17:10:01;101910;;;21.1;82
61571;BME280;47463;49.884;10.010;2023-08-12T17:15:01;101900;;;21;83
61571;BME280;47463;49.884;10.010;2023-08-12T17:20:01;101890;;;21;83
61571;BME280;47463;49.884;10.010;2023-08-12T17:25:01;101890;;;20.9;84
61571;BME280;47463;49.884;10.010;2023-08-12T17:30:01;101880;;;20.7;83
61571;BME280;47463;49.884;10.010;2023-08-12T17:35:01;101880;;;20.6;84
61571;BME280;47463;49.884;10.010;2023-08-12T17:40:01;101880;;;20.6;84
61571;BME280;47463;49.884;10.010;2023-08-12T17:45:01;101880;;;20.5;84
61571;BME280;47463;49.884;10.010;2023-08-12T17:50:01;101880;;;20.5;84
61571;BME280;47463;49.884;10.010;2023-08-12T17:55:01;101880;;;20.5;85
61571;BME280;47463;49.884;10.010;2023-08-12T18:00:01;101880;;;20.6;85
61571;BME280;47463;49.884;10.010;2023-08-12T18:05:01;101890;;;20.6;85
61571;BME280;47463;49.884;10.010;2023-08-12T18:10:01;101900;;;20.7;85
61571;BME280;47463;49.884;10.010;2023-08-12T18:15:01;101900;;;20.7;85
61571;BME280;47463;49.884;10.010;2023-08-12T18:20:01;101900;;;20.6;84
61571;BME280;47463;49.884;10.010;2023-08-12T18:25:01;101910;;;20.5;84
61571;BME280;47463;49.884;10.010;2023-08-12T18:30:01;101910;;;20.5;84
61571;BME280;47463;49.884;10.010;2023-08-12T18:35:01;101890;;;20.4;84
61571;BME280;47463;49.884;10.010;2023-08-12T18:40:01;101890;;;20.3;84
61571;BME280;47463;49.884;10.010;2023-08-12T18:45:01;101900;;;20.3;84
61571;BME280;47463;49.884;10.010;2023-08-12T18:50:01;101900;;;20.2;85
61571;BME280;47463;49.884;10.010;2023-08-12T18:55:01;101890;;;20.2;85
61571;BME280;47463;49.884;10.010;2023-08-12T19:00:01;101900;;;20.1;85
61571;BME280;47463;49.884;10.010;2023-08-12T19:05:01;101890;;;20;85
61571;BME280;47463;49.884;10.010;2023-08-12T19:10:01;101900;;;20;85
61571;BME280;47463;49.884;10.010;2023-08-12T19:15:01;101910;;;20;86
61571;BME280;47463;49.884;10.010;2023-08-12T19:20:01;101920;;;20;86
61571;BME280;47463;49.884;10.010;2023-08-12T19:25:01;101920;;;19.9;86
61571;BME280;47463;49.884;10.010;2023-08-12T19:30:01;101930;;;19.9;86
61571;BME280;47463;49.884;10.010;2023-08-12T19:35:01;101930;;;19.8;86
61571;BME280;47463;49.884;10.010;2023-08-12T19:40:01;101940;;;19.8;86
61571;BME280;47463;49.884;10.010;2023-08-12T19:45:01;101930;;;19.8;87
61571;BME280;47463;49.884;10.010;2023-08-12T19:50:01;101940;;;19.8;87
61571;BME280;47463;49.884;10.010;2023-08-12T19:55:01;101950;;;19.8;87
61571;BME280;47463;49.884;10.010;2023-08-12T20:00:01;101960;;;19.8;87
61571;BME280;47463;49.884;10.010;2023-08-12T20:05:01;101960;;;19.8;87
61571;BME280;47463;49.884;10.010;2023-08-12T20:10:01;101960;;;19.8;87
61571;BME280;47463;49.884;10.010;2023-08-12T20:15:01;101960;;;19.8;87
61571;BME280;47463;49.884;10.010;2023-08-12T20:20:01;101970;;;19.9;87
61571;BME280;47463;49.884;10.010;2023-08-12T20:25:01;101980;;;19.9;87
61571;BME280;47463;49.884;10.010;2023-08-12T20:30:01;101980;;;19.9;87
61571;BME280;47463;49.884;10.010;2023-08-12T20:35:01;101970;;;19.9;87
61571;BME280;47463;49.884;10.010;2023-08-12T20:40:01;101970;;;20;87
61571;BME280;47463;49.884;10.010;2023-08-12T20:45:01;101970;;;20;87
61571;BME280;47463;49.884;10.010;2023-08-12T20:50:01;101980;;;20;87
61571;BME280;47463;49.884;10.010;2023-08-12T20:55:01;101970;;;19.9;87
61571;BME280;47463;49.884;10.010;2023-08-12T21:00:01;101970;;;19.9;87
61571;BME280;47463;49.884;10.010;2023-08-12T21:05:01;101970;;;19.9;87
61571;BME280;47463;49.884;10.010;2023-08-12T21:10:01;101960;;;19.9;87
61571;BME280;47463;49.884;10.010;2023-08-12T21:15:01;101980;;;19.8;87
61571;BME280;47463;49.884;10.010;2023-08-12T21:20:01;101980;;;19.9;87
61571;BME280;47463;49.884;10.010;2023-08-12T21:25:01;101980;;;19.9;87
61571;BME280;47463;49.884;10.010;2023-08-12T21:30:01;101990;;;19.9;87
61571;BME280;47463;49.884;10.010;2023-08-12T21:35:01;102000;;;19.8;87
61571;BME280;47463;49.884;10.010;2023-08-12T21:40:01;102010;;;19.7;87
61571;BME280;47463;49.884;10.010;2023-08-12T21:45:01;102010;;;19.7;87
61571;BME280;47463;49.884;10.010;2023-08-12T21:50:01;102020;;;19.7;87
61571;BME280;47463;49.884;10.010;2023-08-12T21:55:01;102020;;;19.6;87
61571;BME280;47463;49.884;10.010;2023-08-12T22:00:01;102020;;;19.6;87
61571;BME280;47463;49.884;10.010;2023-08-12T22:05:01;102020;;;19.6;87
61571;BME280;47463;49.884;10.010;2023-08-12T22:10:01;102020;;;19.5;87
61571;BME280;47463;49.884;10.010;2023-08-12T22:15:01;102030;;;19.5;87
61571;BME280;47463;49.884;10.010;2023-08-12T22:20:01;102030;;;19.5;87
61571;BME280;47463;49.884;10.010;2023-08-12T22:25:01;102040;;;19.7;87
61571;BME280;47463;49.884;10.010;2023-08-12T22:30:01;102020;;;19.7;86
61571;BME280;47463;49.884;10.010;2023-08-12T22:35:01;102020;;;19.7;86
61571;BME280;47463;49.884;10.010;2023-08-12T22:40:01;102020;;;19.6;86
61571;BME280;47463;49.884;10.010;2023-08-12T22:45:01;102020;;;19.4;86
61571;BME280;47463;49.884;10.010;2023-08-12T22:50:01;102020;;;19.3;86
61571;BME280;47463;49.884;10.010;2023-08-12T22:55:01;102020;;;19.2;87
61571;BME280;47463;49.884;10.010;2023-08-12T23:00:01;102020;;;19.2;87
61571;BME280;47463;49.884;10.010;2023-08-12T23:05:01;102010;;;19;87
61571;BME280;47463;49.884;10.010;2023-08-12T23:10:01;102010;;;19;87
61571;BME280;47463;49.884;10.010;2023-08-12T23:15:01;102010;;;19.1;87
61571;BME280;47463;49.884;10.010;2023-08-12T23:20:01;102010;;;19.1;87
61571;BME280;47463;49.884;10.010;2023-08-12T23:25:01;102000;;;19;87
61571;BME280;47463;49.884;10.010;2023-08-12T23:30:01;102010;;;18.8;87
61571;BME280;47463;49.884;10.010;2023-08-12T23:35:01;102010;;;18.7;87
61571;BME280;47463;49.884;10.010;2023-08-12T23:40:01;102020;;;18.6;87
61571;BME280;47463;49.884;10.010;2023-08-12T23:45:01;102010;;;18.5;88
61571;BME280;47463;49.884;10.010;2023-08-12T23:50:01;102010;;;18.5;88
61571;BME280;47463;49.884;10.010;2023-08-12T23:55:01;102020;;;18.5;88
